»·PEaware :: N9229P KSBA-KBUR

N9229P :: KSBA-KBUR

FLIGHT INFORMATION

Flight Status: Arrived
Operator: Privately registered:
United States
More flights under this callsign
Pilot: James W. (24810)
Aircraft: PIPER PA-24 COMMANCHE
(PA24)
More flights by this aircraft type
Origin: KSBA Santa Barbara Mun
United States
Destination: KBUR Bob Hope-Burbank
United States
More flights between these airports :: More routes between these airports
Route:
File this flight plan on PilotEdge
Remarks:
Altitude:
(Current/Filed)
5,500ft
Speed:
(Current/Filed)
165kts
Departed: 07-Aug-20 06:03 PM
Arrived: 07-Aug-20 06:39 PM
Distance/Time
Traveled:
75nm/0:36
Distance/Time
To Go:
Arrived

Flight Plot

Page will automatically refresh every two minutes.


Map Options




Map Legend


Flown Route
Filed Route
Departure Airport
Arrival Airport
Navaid (VOR, NDB)
Fix

Horizontal Profiles

Position Reports

Time Latitude Longitude Heading Altitude Ground
Speed
07-Aug-20 17:47 34.432659 -119.834349 276 12ft 0kts
07-Aug-20 17:48 34.432659 -119.834349 276 12ft 0kts
07-Aug-20 17:48 34.432659 -119.834349 276 12ft 0kts
07-Aug-20 17:50 34.432659 -119.834349 276 12ft 0kts
07-Aug-20 17:51 34.432659 -119.834349 276 12ft 0kts
07-Aug-20 17:51 34.432659 -119.834349 276 12ft 0kts
07-Aug-20 17:52 34.432659 -119.834349 276 12ft 0kts
07-Aug-20 17:54 34.432659 -119.834349 276 12ft 0kts
07-Aug-20 17:54 34.432659 -119.834349 276 12ft 0kts
07-Aug-20 17:55 34.432659 -119.834349 276 12ft 0kts
07-Aug-20 17:57 34.432659 -119.834349 276 12ft 0kts
07-Aug-20 17:57 34.432628 -119.834652 250 12ft 2kts
07-Aug-20 17:58 34.431095 -119.835332 172 11ft 11kts
07-Aug-20 17:59 34.428780 -119.835276 173 9ft 0kts
07-Aug-20 18:00 34.428780 -119.835276 172 9ft 0kts
07-Aug-20 18:01 34.427978 -119.835392 230 8ft 11kts
07-Aug-20 18:02 34.426841 -119.867173 265 496ft 142kts
07-Aug-20 18:03 34.424700 -119.917780 265 1304ft 150kts
07-Aug-20 18:04 34.422590 -119.968408 266 1950ft 149kts
07-Aug-20 18:05 34.418635 -120.018174 236 2546ft 152kts
07-Aug-20 18:06 34.392975 -119.998020 98 3256ft 162kts
07-Aug-20 18:07 34.387242 -119.944201 98 3954ft 160kts
07-Aug-20 18:08 34.381325 -119.890837 99 4653ft 159kts
07-Aug-20 18:09 34.375413 -119.837982 99 5263ft 159kts
07-Aug-20 18:10 34.369269 -119.783301 98 5501ft 171kts
07-Aug-20 18:11 34.362737 -119.725220 98 5500ft 175kts
07-Aug-20 18:12 34.356117 -119.666549 98 5502ft 176kts
07-Aug-20 18:13 34.349417 -119.607459 98 5502ft 177kts
07-Aug-20 18:14 34.342416 -119.546604 98 5506ft 185kts
07-Aug-20 18:15 34.337483 -119.484338 95 5509ft 187kts
07-Aug-20 18:16 34.333189 -119.421525 95 5510ft 188kts
07-Aug-20 18:17 34.328847 -119.358263 95 5515ft 188kts
07-Aug-20 18:18 34.324490 -119.294849 96 5504ft 189kts
07-Aug-20 18:19 34.319965 -119.231331 96 5497ft 189kts
07-Aug-20 18:20 34.314706 -119.168110 96 5495ft 188kts
07-Aug-20 18:21 34.309438 -119.105083 96 5493ft 188kts
07-Aug-20 18:22 34.304453 -119.041788 95 5491ft 190kts
07-Aug-20 18:23 34.299923 -118.978081 95 5490ft 190kts
07-Aug-20 18:24 34.295382 -118.914690 95 5489ft 181kts
07-Aug-20 18:25 34.291267 -118.856563 95 5490ft 169kts
07-Aug-20 18:26 34.287229 -118.799902 95 5409ft 173kts
07-Aug-20 18:27 34.283166 -118.739733 95 4814ft 181kts
07-Aug-20 18:28 34.278547 -118.679048 98 4212ft 179kts
07-Aug-20 18:29 34.273012 -118.620438 98 3609ft 172kts
07-Aug-20 18:30 34.267186 -118.563547 99 3029ft 166kts
07-Aug-20 18:31 34.261548 -118.511687 99 2996ft 143kts
07-Aug-20 18:32 34.257642 -118.471341 99 2996ft 103kts
07-Aug-20 18:33 34.254548 -118.436568 99 2766ft 109kts
07-Aug-20 18:34 34.252026 -118.405216 99 2321ft 89kts
07-Aug-20 18:35 34.245209 -118.375846 131 1539ft 94kts
07-Aug-20 18:36 34.223611 -118.363581 166 1248ft 86kts
07-Aug-20 18:37 34.202833 -118.357868 168 726ft 50kts
07-Aug-20 18:38 34.198835 -118.357620 271 711ft 0kts
07-Aug-20 18:39 34.199805 -118.359080 294 718ft 8kts
07-Aug-20 18:42 34.199954 -118.359428 0 719ft 0kts
07-Aug-20 18:43 34.199954 -118.359428 296 719ft 0kts
07-Aug-20 18:44 34.199954 -118.359428 296 719ft 0kts
07-Aug-20 18:45 34.199954 -118.359428 296 719ft 0kts
07-Aug-20 18:46 34.199954 -118.359428 296 719ft 0kts
07-Aug-20 18:47 34.199954 -118.359428 296 719ft 0kts
07-Aug-20 18:48 34.199954 -118.359428 296 719ft 0kts
07-Aug-20 18:49 34.199954 -118.359428 296 719ft 0kts
07-Aug-20 18:50 34.199954 -118.359428 296 719ft 0kts

Navigation Log

Ident Type
Flight plan parsing failed, navigation log unavailable